Terminal Aerodrome Forecast
Issued by NWS

Home | Current Version | Previous Version | Text Only | Print | Product List | Glossary On
Versions: 1 2 3 4 5 6 7 8 9 10 11 12 13 14 15 16
000
FTUS45 KGGW 202320
TAFSDY
TAF
KSDY 202320Z 2100/2124 20010KT P6SM SCT080
     FM210500 20008KT 5SM BR BKN040
     FM210700 21008KT 5SM BR SCT030 WS020/27035KT
     FM211400 22008KT P6SM BKN040
     FM212000 27011KT P6SM VCSH BKN060=

USA.gov is the U.S. government's official web portal to all federal, state and local government web resources and services.